createdAt,value
2019-05-16T00:01:04.398Z,17.48
2019-05-16T00:03:34.836Z,17.46
2019-05-16T00:06:05.099Z,17.44
2019-05-16T00:08:35.327Z,17.38
2019-05-16T00:11:05.955Z,17.40
2019-05-16T00:13:41.792Z,17.36
2019-05-16T00:16:13.406Z,17.37
2019-05-16T00:18:43.555Z,17.37
2019-05-16T00:21:14.321Z,17.36
2019-05-16T00:23:48.319Z,17.33
2019-05-16T00:26:19.724Z,17.38
2019-05-16T00:28:50.134Z,17.39
2019-05-16T00:31:21.368Z,17.40
2019-05-16T00:33:52.245Z,17.30
2019-05-16T00:36:22.499Z,17.36
2019-05-16T00:38:52.658Z,17.27
2019-05-16T00:41:23.697Z,17.29
2019-05-16T00:43:53.859Z,17.30
2019-05-16T00:46:25.272Z,17.25
2019-05-16T00:48:55.426Z,17.23
2019-05-16T00:51:28.637Z,17.21
2019-05-16T00:53:58.972Z,17.12
2019-05-16T00:56:30.524Z,17.13
2019-05-16T00:59:01.653Z,17.08
2019-05-16T01:01:32.824Z,17.11
2019-05-16T01:04:03.495Z,17.05
2019-05-16T01:06:34.729Z,17.07
2019-05-16T01:09:08.644Z,17.01
2019-05-16T01:11:40.559Z,17.02
2019-05-16T01:14:11.721Z,16.97
2019-05-16T01:16:42.892Z,16.92
2019-05-16T01:19:13.021Z,16.89
2019-05-16T01:21:43.929Z,16.80
2019-05-16T01:24:14.059Z,16.82
2019-05-16T01:26:44.272Z,16.85
2019-05-16T01:29:14.513Z,16.76
2019-05-16T01:31:48.390Z,16.81
2019-05-16T01:34:18.282Z,16.83
2019-05-16T01:36:48.662Z,16.78
2019-05-16T01:39:18.950Z,16.83
2019-05-16T01:41:49.533Z,16.84
2019-05-16T01:44:20.985Z,16.77
2019-05-16T01:46:51.426Z,16.77
2019-05-16T01:49:22.015Z,16.77
2019-05-16T01:51:54.036Z,16.55
2019-05-16T01:54:25.657Z,16.75
2019-05-16T01:56:59.292Z,16.74
2019-05-16T01:59:28.961Z,16.76
2019-05-16T02:02:00.882Z,16.71
2019-05-16T02:04:32.148Z,16.76
2019-05-16T02:07:03.573Z,16.66
2019-05-16T02:09:33.750Z,16.69
2019-05-16T02:12:04.403Z,16.65
2019-05-16T02:14:34.563Z,16.80
2019-05-16T02:17:04.741Z,16.80
2019-05-16T02:19:38.354Z,16.72
2019-05-16T02:22:09.113Z,16.78
2019-05-16T02:24:39.250Z,16.80
2019-05-16T02:27:11.132Z,16.76
2019-05-16T02:29:41.259Z,16.70
2019-05-16T02:32:11.882Z,16.71
2019-05-16T02:34:43.563Z,16.68
2019-05-16T02:37:24.070Z,16.78
2019-05-16T02:39:46.570Z,16.78
2019-05-16T02:42:21.179Z,16.84
2019-05-16T02:44:51.265Z,16.73
2019-05-16T02:47:22.132Z,16.88
2019-05-16T02:49:52.262Z,16.93
2019-05-16T02:52:24.136Z,16.96
2019-05-16T02:54:55.787Z,16.98
2019-05-16T02:57:26.447Z,16.99
2019-05-16T02:59:56.916Z,16.92
2019-05-16T03:02:31.029Z,16.90
2019-05-16T03:05:00.970Z,16.98
2019-05-16T03:07:41.638Z,17.00
2019-05-16T03:10:06.137Z,17.11
2019-05-16T03:12:41.114Z,17.09
2019-05-16T03:15:11.196Z,17.03
2019-05-16T03:17:43.957Z,17.08
2019-05-16T03:20:14.507Z,17.12
2019-05-16T03:22:52.117Z,17.13
2019-05-16T03:25:23.225Z,17.11
2019-05-16T03:27:53.504Z,17.11
2019-05-16T03:30:24.494Z,17.07
2019-05-16T03:32:55.339Z,17.18
2019-05-16T03:35:25.657Z,17.16
2019-05-16T03:38:00.666Z,17.14
2019-05-16T03:40:31.362Z,17.15
2019-05-16T03:43:01.673Z,17.19
2019-05-16T03:45:32.538Z,17.20
2019-05-16T03:48:03.437Z,17.13
2019-05-16T03:50:34.988Z,17.11
2019-05-16T03:53:06.595Z,17.24
2019-05-16T03:55:40.743Z,17.25
2019-05-16T03:58:11.680Z,17.20
2019-05-16T04:00:54.304Z,17.26
2019-05-16T04:03:28.809Z,17.25
2019-05-16T04:06:01.216Z,17.22
2019-05-16T04:08:33.162Z,17.23
2019-05-16T04:11:03.301Z,17.21
2019-05-16T04:13:33.457Z,17.27
2019-05-16T04:16:05.066Z,17.27
2019-05-16T04:18:35.700Z,17.25
2019-05-16T04:21:05.854Z,17.24
2019-05-16T04:23:36.595Z,17.35
2019-05-16T04:26:06.725Z,17.39
2019-05-16T04:28:40.971Z,17.42
2019-05-16T04:31:10.891Z,17.39
2019-05-16T04:33:42.010Z,17.45
2019-05-16T04:36:13.255Z,17.40
2019-05-16T04:38:46.744Z,17.43
2019-05-16T04:41:16.198Z,17.48
2019-05-16T04:43:50.281Z,17.52
2019-05-16T04:46:21.378Z,17.53
2019-05-16T04:48:51.142Z,17.53
2019-05-16T04:51:22.336Z,17.63
2019-05-16T04:53:53.922Z,17.59
2019-05-16T04:56:25.545Z,17.67
2019-05-16T04:58:55.693Z,17.66
2019-05-16T05:01:26.135Z,17.58
2019-05-16T05:04:06.143Z,17.66
2019-05-16T05:06:31.140Z,17.69
2019-05-16T05:09:03.435Z,17.71
2019-05-16T05:11:33.538Z,17.76
2019-05-16T05:14:04.285Z,17.80
2019-05-16T05:16:34.429Z,17.88
2019-05-16T05:19:04.612Z,17.77
2019-05-16T05:21:34.885Z,17.83
2019-05-16T05:24:05.505Z,17.85
2019-05-16T05:26:35.658Z,17.98
2019-05-16T05:29:05.840Z,17.99
2019-05-16T05:31:43.556Z,17.86
2019-05-16T05:34:10.665Z,17.91
2019-05-16T05:36:41.145Z,18.02
2019-05-16T05:39:15.360Z,18.09
2019-05-16T05:41:46.858Z,18.16
2019-05-16T05:44:20.172Z,18.03
2019-05-16T05:46:51.922Z,17.97
2019-05-16T05:49:22.525Z,17.92
2019-05-16T05:51:54.074Z,17.97
2019-05-16T05:54:25.685Z,18.04
2019-05-16T05:57:00.525Z,18.02
2019-05-16T05:59:30.818Z,18.06
2019-05-16T06:02:02.010Z,18.20
2019-05-16T06:04:36.810Z,18.04
2019-05-16T06:07:11.526Z,17.99
2019-05-16T06:09:56.551Z,18.13
2019-05-16T06:12:30.111Z,18.19
2019-05-16T06:15:07.780Z,18.09
2019-05-16T06:17:34.620Z,18.16
2019-05-16T06:20:05.681Z,18.19
2019-05-16T06:22:36.155Z,18.08
2019-05-16T06:25:06.992Z,18.09
2019-05-16T06:27:37.148Z,17.94
2019-05-16T06:30:11.129Z,17.94
2019-05-16T06:32:41.928Z,18.02
2019-05-16T06:35:12.766Z,18.06
2019-05-16T06:37:43.844Z,17.90
2019-05-16T06:40:14.220Z,17.88
2019-05-16T06:42:52.141Z,17.86
2019-05-16T06:45:33.905Z,17.83
2019-05-16T06:48:10.023Z,17.73
2019-05-16T06:50:51.441Z,17.67
2019-05-16T06:53:23.583Z,17.71
2019-05-16T06:55:53.860Z,17.77
2019-05-16T06:58:26.049Z,17.55
2019-05-16T07:00:59.305Z,17.65
2019-05-16T07:03:30.829Z,17.81
2019-05-16T07:06:01.307Z,17.79
2019-05-16T07:08:31.984Z,17.37
2019-05-16T07:11:11.635Z,17.73
2019-05-16T07:13:43.450Z,17.95
2019-05-16T07:16:13.628Z,18.06
2019-05-16T07:18:44.553Z,18.31
2019-05-16T07:21:15.295Z,18.39
2019-05-16T07:23:47.642Z,18.45
2019-05-16T07:26:20.532Z,18.57
2019-05-16T07:28:51.898Z,18.78
2019-05-16T07:31:22.823Z,19.02
2019-05-16T07:33:54.028Z,19.05
2019-05-16T07:36:24.637Z,19.05
2019-05-16T07:38:54.851Z,19.11
2019-05-16T07:41:25.875Z,19.05
2019-05-16T07:44:00.925Z,19.22
2019-05-16T07:46:32.156Z,19.29
2019-05-16T07:49:02.302Z,19.32
2019-05-16T07:51:40.334Z,19.41
2019-05-16T07:54:11.767Z,19.53
2019-05-16T07:56:44.746Z,19.69
2019-05-16T07:59:17.376Z,19.81
2019-05-16T08:01:53.662Z,19.76
2019-05-16T08:04:21.935Z,19.79
2019-05-16T08:07:14.622Z,19.73
2019-05-16T08:09:44.816Z,19.77
2019-05-16T08:12:14.990Z,19.84
2019-05-16T08:17:21.811Z,19.89
2019-05-16T08:19:54.263Z,20.02
2019-05-16T08:22:24.969Z,20.08
2019-05-16T08:24:55.097Z,20.17
2019-05-16T08:27:26.143Z,20.03
2019-05-16T08:35:23.112Z,20.43
2019-05-16T08:37:54.609Z,20.57
2019-05-16T08:40:24.780Z,20.51
2019-05-16T08:42:56.140Z,20.73
2019-05-16T08:45:31.354Z,20.62
2019-05-16T08:48:04.356Z,20.55
2019-05-16T08:50:05.719Z,19.75
2019-05-16T08:50:35.186Z,20.44
2019-05-16T08:53:07.012Z,20.42
2019-05-16T08:55:43.288Z,20.54
2019-05-16T08:58:22.118Z,20.52
2019-05-16T09:00:55.835Z,20.35
2019-05-16T09:03:26.770Z,19.92
2019-05-16T09:05:56.931Z,19.62
2019-05-16T09:08:28.292Z,19.35
2019-05-16T09:10:31.815Z,20.34
2019-05-16T09:11:09.270Z,19.47
2019-05-16T09:21:07.299Z,19.17
2019-05-16T09:23:38.714Z,19.24
2019-05-16T09:29:47.182Z,19.72
2019-05-16T09:32:21.444Z,19.81
2019-05-16T09:34:49.192Z,19.64
2019-05-16T09:37:20.090Z,19.97
2019-05-16T09:39:51.343Z,20.28
2019-05-16T09:42:21.518Z,20.38
2019-05-16T09:44:51.665Z,20.59
2019-05-16T09:47:24.125Z,20.63
2019-05-16T09:49:54.287Z,20.77
2019-05-16T09:52:24.444Z,20.73
2019-05-16T09:54:54.709Z,20.66
2019-05-16T09:57:27.788Z,20.87
2019-05-16T09:59:57.826Z,21.11
2019-05-16T10:02:29.827Z,21.11
2019-05-16T10:05:02.710Z,21.26
2019-05-16T10:07:38.531Z,21.39
2019-05-16T10:10:10.225Z,21.29
2019-05-16T10:12:41.445Z,21.58
2019-05-16T10:15:12.228Z,21.62
2019-05-16T10:17:42.857Z,21.70
2019-05-16T10:20:16.946Z,21.69
2019-05-16T10:22:50.585Z,21.99
2019-05-16T10:25:19.967Z,22.23
2019-05-16T10:27:50.160Z,22.31
2019-05-16T10:30:20.599Z,22.60
2019-05-16T10:32:51.790Z,22.83
2019-05-16T10:35:23.564Z,22.79
2019-05-16T10:37:58.193Z,22.93
2019-05-16T10:40:32.342Z,22.46
2019-05-16T10:43:02.985Z,22.59
2019-05-16T10:45:33.136Z,22.62
2019-05-16T10:48:04.879Z,22.67
2019-05-16T10:50:36.985Z,22.94
2019-05-16T10:53:32.478Z,23.16
2019-05-16T10:55:40.830Z,23.19
2019-05-16T10:58:11.012Z,23.41
2019-05-16T11:01:07.771Z,23.47
2019-05-16T11:03:18.424Z,23.46
2019-05-16T11:06:01.328Z,23.40
2019-05-16T11:08:20.785Z,23.23
2019-05-16T11:10:51.010Z,23.41
2019-05-16T11:13:21.655Z,23.42
2019-05-16T11:15:51.852Z,23.35
2019-05-16T11:18:22.595Z,23.57
2019-05-16T11:20:58.156Z,23.82
2019-05-16T11:23:31.518Z,23.53
2019-05-16T11:26:03.233Z,23.10
2019-05-16T11:28:36.830Z,23.28
2019-05-16T11:31:07.621Z,23.44
2019-05-16T11:33:40.258Z,23.64
2019-05-16T11:36:16.574Z,24.09
2019-05-16T11:38:49.142Z,24.50
2019-05-16T11:41:19.572Z,24.62
2019-05-16T11:43:51.124Z,24.62
2019-05-16T11:46:21.768Z,24.55
2019-05-16T11:48:56.894Z,25.19
2019-05-16T11:51:27.452Z,25.55
2019-05-16T11:53:59.949Z,25.85
2019-05-16T11:56:31.046Z,25.93
2019-05-16T11:59:01.281Z,26.17
2019-05-16T12:02:21.703Z,26.09
2019-05-16T12:04:59.207Z,26.13
2019-05-16T12:07:44.260Z,26.45
2019-05-16T12:10:16.296Z,26.61
2019-05-16T12:12:56.759Z,26.96
2019-05-16T12:15:41.649Z,27.59
2019-05-16T12:18:12.380Z,27.77
2019-05-16T12:20:43.860Z,27.91
2019-05-16T12:23:16.928Z,28.19
2019-05-16T12:25:47.540Z,27.88
2019-05-16T12:28:18.916Z,27.93
2019-05-16T12:30:49.923Z,28.10
2019-05-16T12:33:20.380Z,28.05
2019-05-16T12:35:52.040Z,28.37
2019-05-16T12:38:24.095Z,28.91
2019-05-16T12:40:56.747Z,28.69
2019-05-16T12:43:44.047Z,28.70
2019-05-16T12:45:59.078Z,28.21
2019-05-16T12:48:32.474Z,28.31
2019-05-16T12:51:13.625Z,27.87
2019-05-16T12:53:47.778Z,28.25
2019-05-16T12:56:19.226Z,28.11
2019-05-16T12:58:53.424Z,27.87
2019-05-16T13:01:30.466Z,27.29
2019-05-16T13:03:55.501Z,27.36
2019-05-16T13:06:27.999Z,27.24
2019-05-16T13:08:58.833Z,26.50
2019-05-16T13:11:29.019Z,26.98
2019-05-16T13:14:06.332Z,27.24
2019-05-16T13:16:31.081Z,26.97
2019-05-16T13:19:02.699Z,26.92
2019-05-16T13:21:38.096Z,27.05
2019-05-16T13:24:07.654Z,26.61
2019-05-16T13:26:37.838Z,26.91
2019-05-16T13:29:08.824Z,27.19
2019-05-16T13:31:39.481Z,27.03
2019-05-16T13:34:09.765Z,27.60
2019-05-16T13:36:44.104Z,28.58
2019-05-16T13:39:17.195Z,29.12
2019-05-16T13:41:47.569Z,29.42
2019-05-16T13:44:22.774Z,29.47
2019-05-16T13:46:50.939Z,29.09
2019-05-16T13:49:22.022Z,29.51
2019-05-16T13:51:52.767Z,29.80
2019-05-16T13:54:22.926Z,30.19
2019-05-16T13:56:53.574Z,29.92
2019-05-16T13:59:23.740Z,29.94
2019-05-16T14:01:57.186Z,29.53
2019-05-16T14:04:26.550Z,28.76
2019-05-16T14:06:59.090Z,28.42
2019-05-16T14:09:30.445Z,28.67
2019-05-16T14:12:01.054Z,28.44
2019-05-16T14:14:38.967Z,28.34
2019-05-16T14:17:14.024Z,28.37
2019-05-16T14:19:40.318Z,28.02
2019-05-16T14:22:10.987Z,27.91
2019-05-16T14:24:42.716Z,27.41
2019-05-16T14:27:13.815Z,26.72
2019-05-16T14:29:47.667Z,26.62
2019-05-16T14:32:19.957Z,26.64
2019-05-16T14:34:51.838Z,26.33
2019-05-16T14:37:26.719Z,25.89
2019-05-16T14:40:00.994Z,25.67
2019-05-16T14:42:30.573Z,25.76
2019-05-16T14:45:11.220Z,25.39
2019-05-16T14:47:37.992Z,25.19
2019-05-16T14:50:13.210Z,24.82
2019-05-16T14:52:42.397Z,24.81
2019-05-16T14:55:18.597Z,24.63
2019-05-16T14:57:48.812Z,25.18
2019-05-16T15:00:19.493Z,25.29
2019-05-16T15:02:53.559Z,25.23
2019-05-16T15:05:27.236Z,25.04
2019-05-16T15:08:00.086Z,24.57
2019-05-16T15:10:32.053Z,24.41
2019-05-16T15:13:07.853Z,24.31
2019-05-16T15:15:39.453Z,24.09
2019-05-16T15:18:10.715Z,24.02
2019-05-16T15:20:46.664Z,23.96
2019-05-16T15:23:17.556Z,23.84
2019-05-16T15:25:55.592Z,23.72
2019-05-16T15:28:30.141Z,22.99
2019-05-16T15:30:58.562Z,22.67
2019-05-16T15:33:29.834Z,22.76
2019-05-16T15:36:00.021Z,22.81
2019-05-16T15:38:31.217Z,22.78
2019-05-16T15:41:01.901Z,22.85
2019-05-16T15:43:32.071Z,23.06
2019-05-16T15:46:03.104Z,22.57
2019-05-16T15:48:33.675Z,22.49
2019-05-16T15:51:09.319Z,22.39
2019-05-16T15:53:44.182Z,22.33
2019-05-16T15:56:17.632Z,22.21
2019-05-16T15:58:47.108Z,21.51
2019-05-16T16:01:19.353Z,21.81
2019-05-16T16:03:52.811Z,22.08
2019-05-16T16:06:28.965Z,22.07
2019-05-16T16:09:02.438Z,22.09
2019-05-16T16:11:37.478Z,22.15
2019-05-16T16:14:09.011Z,22.20
2019-05-16T16:16:41.636Z,22.20
2019-05-16T16:19:12.547Z,22.15
2019-05-16T16:21:42.825Z,22.26
2019-05-16T16:24:12.993Z,22.14
2019-05-16T16:26:43.230Z,22.25
2019-05-16T16:29:16.716Z,22.16
2019-05-16T16:31:47.664Z,22.06
2019-05-16T16:34:19.245Z,22.12
2019-05-16T16:36:49.434Z,21.99
2019-05-16T16:39:19.653Z,21.70
2019-05-16T16:41:50.321Z,21.58
2019-05-16T16:44:22.782Z,21.60
2019-05-16T16:46:52.986Z,21.72
2019-05-16T16:49:24.258Z,21.37
2019-05-16T16:51:57.220Z,21.38
2019-05-16T16:54:28.514Z,21.44
2019-05-16T16:56:58.843Z,21.19
2019-05-16T16:59:29.343Z,21.21
2019-05-16T17:02:00.026Z,21.21
2019-05-16T17:04:30.242Z,21.00
2019-05-16T17:07:00.411Z,21.00
2019-05-16T17:09:33.927Z,20.91
2019-05-16T17:12:06.865Z,21.15
2019-05-16T17:14:37.495Z,21.15
2019-05-16T17:17:07.659Z,21.00
2019-05-16T17:19:38.165Z,20.89
2019-05-16T17:22:17.032Z,21.03
2019-05-16T17:24:42.502Z,20.87
2019-05-16T17:27:12.688Z,20.96
2019-05-16T17:29:44.488Z,21.05
2019-05-16T17:32:16.680Z,21.15
2019-05-16T17:34:46.942Z,21.12
2019-05-16T17:37:17.277Z,21.06
2019-05-16T17:39:48.809Z,20.94
2019-05-16T17:42:18.985Z,21.01
2019-05-16T17:44:50.177Z,20.91
2019-05-16T17:47:20.409Z,20.84
2019-05-16T17:49:50.589Z,20.68
2019-05-16T17:52:20.873Z,20.74
2019-05-16T17:54:53.393Z,20.82
2019-05-16T17:57:23.955Z,20.79
2019-05-16T17:59:57.392Z,20.91
2019-05-16T18:02:27.706Z,20.79
2019-05-16T18:04:58.299Z,20.90
2019-05-16T18:07:29.048Z,20.75
2019-05-16T18:10:00.532Z,20.80
2019-05-16T18:12:31.027Z,20.77
2019-05-16T18:15:01.340Z,20.75
2019-05-16T18:17:32.182Z,20.65
2019-05-16T18:20:02.391Z,20.58
2019-05-16T18:22:33.462Z,20.53
2019-05-16T18:25:03.859Z,20.61
2019-05-16T18:27:34.529Z,20.48
2019-05-16T18:30:06.045Z,20.42
2019-05-16T18:32:37.707Z,20.37
2019-05-16T18:35:10.388Z,20.33
2019-05-16T18:37:41.443Z,20.33
2019-05-16T18:40:12.045Z,20.27
2019-05-16T18:42:42.285Z,20.75
2019-05-16T18:45:13.458Z,20.38
2019-05-16T18:47:44.101Z,20.44
2019-05-16T18:50:14.604Z,20.35
2019-05-16T18:52:47.134Z,20.19
2019-05-16T18:58:51.327Z,19.88
2019-05-16T19:04:50.279Z,19.73
2019-05-16T19:07:20.484Z,19.54
2019-05-16T19:09:50.632Z,19.51
2019-05-16T19:12:22.230Z,19.58
2019-05-16T19:14:52.398Z,19.58
2019-05-16T19:17:24.882Z,19.64
2019-05-16T19:19:57.021Z,19.51
2019-05-16T19:22:27.842Z,19.58
2019-05-16T19:24:58.088Z,19.32
2019-05-16T19:27:28.304Z,19.36
2019-05-16T19:29:58.473Z,19.30
2019-05-16T19:32:28.737Z,19.09
2019-05-16T19:34:59.348Z,19.02
2019-05-16T19:37:29.600Z,18.97
2019-05-16T19:39:59.946Z,19.12
2019-05-16T19:42:30.367Z,19.23
2019-05-16T19:45:01.076Z,19.14
2019-05-16T19:47:37.002Z,19.09
2019-05-16T19:50:06.443Z,18.88
2019-05-16T19:52:36.725Z,19.06
2019-05-16T19:55:10.758Z,18.95
2019-05-16T19:58:22.538Z,18.93
2019-05-16T20:08:52.590Z,18.81
2019-05-16T20:11:32.547Z,18.69
2019-05-16T20:17:37.747Z,18.66
2019-05-16T20:20:12.847Z,18.56
2019-05-16T20:22:49.860Z,18.43
2019-05-16T20:25:31.594Z,18.29
2019-05-16T20:28:01.663Z,18.12
2019-05-16T20:30:32.277Z,17.98
2019-05-16T20:33:04.014Z,18.09
2019-05-16T20:35:37.535Z,18.14
2019-05-16T20:41:27.257Z,18.03
2019-05-16T20:44:32.324Z,17.62
2019-05-16T20:47:18.130Z,17.74
2019-05-16T20:50:12.710Z,17.65
2019-05-16T20:53:12.342Z,17.48
2019-05-16T20:55:53.520Z,17.74
2019-05-16T20:58:28.388Z,17.35
2019-05-16T21:01:01.479Z,17.42
2019-05-16T21:03:30.570Z,17.44
2019-05-16T21:06:01.219Z,17.48
2019-05-16T21:08:31.532Z,17.35
2019-05-16T21:11:01.770Z,17.58
2019-05-16T21:13:35.814Z,17.27
2019-05-16T21:16:07.186Z,17.26
2019-05-16T21:18:38.150Z,17.38
2019-05-16T21:21:08.349Z,17.43
2019-05-16T21:23:38.505Z,17.35
2019-05-16T21:26:08.710Z,17.51
2019-05-16T21:28:39.336Z,17.56
2019-05-16T21:32:16.515Z,17.54
2019-05-16T21:35:15.637Z,17.61
2019-05-16T21:37:50.596Z,17.25
2019-05-16T21:40:22.333Z,17.30
2019-05-16T21:42:52.821Z,17.27
2019-05-16T21:45:22.970Z,17.34
2019-05-16T21:47:53.109Z,17.42
2019-05-16T21:50:23.836Z,17.46
2019-05-16T21:52:56.319Z,17.51
2019-05-16T21:55:27.293Z,17.27
2019-05-16T21:57:58.867Z,17.48
2019-05-16T22:00:38.504Z,17.31
2019-05-16T22:03:10.340Z,17.45
2019-05-16T22:05:41.098Z,17.37
2019-05-16T22:08:11.969Z,17.04
2019-05-16T22:10:42.778Z,17.27
2019-05-16T22:13:31.151Z,17.33
2019-05-16T22:16:09.103Z,17.06
2019-05-16T22:18:48.645Z,17.22
2019-05-16T22:21:24.072Z,17.41
2019-05-16T22:23:57.105Z,16.92
2019-05-16T22:26:38.809Z,17.17
2019-05-16T22:29:17.022Z,17.25
2019-05-16T22:31:53.202Z,17.24
2019-05-16T22:34:23.395Z,17.16
2019-05-16T22:36:57.270Z,17.11
2019-05-16T22:39:28.325Z,17.25
2019-05-16T22:50:07.436Z,17.21
2019-05-16T22:52:38.323Z,17.27
2019-05-16T22:55:10.882Z,17.19
2019-05-16T22:57:41.107Z,17.20
2019-05-16T23:00:14.218Z,17.26
2019-05-16T23:02:45.462Z,17.22
2019-05-16T23:05:16.849Z,17.21
2019-05-16T23:07:51.297Z,17.24
2019-05-16T23:10:20.236Z,17.32
2019-05-16T23:12:50.388Z,17.41
2019-05-16T23:15:21.393Z,17.27
2019-05-16T23:17:51.554Z,17.23
2019-05-16T23:20:21.722Z,17.34
2019-05-16T23:22:52.511Z,17.16
2019-05-16T23:25:23.279Z,17.17
2019-05-16T23:27:56.658Z,16.96
2019-05-16T23:30:27.364Z,17.10
2019-05-16T23:32:58.207Z,17.22
2019-05-16T23:35:57.542Z,17.00
2019-05-16T23:38:48.863Z,17.04
2019-05-16T23:41:37.032Z,17.12
2019-05-16T23:47:10.944Z,17.08
2019-05-16T23:49:41.216Z,16.91
2019-05-16T23:52:11.392Z,17.09
2019-05-16T23:54:44.452Z,17.01
2019-05-16T23:57:14.602Z,16.89
2019-05-16T23:59:47.206Z,17.00
